»·PEaware :: N1913A KAPV-KBFL

N1913A :: KAPV-KBFL

FLIGHT INFORMATION

Flight Status: Arrived
Operator: Privately registered:
United States
More flights under this callsign
Pilot: Keauyon F. (32083)
Aircraft: MOONEY M-20 201 202 205 220 ATS MSE
(M20P)
More flights by this aircraft type
Origin: KAPV Apple Valley
United States
Destination: KBFL Meadows
United States
More flights between these airports :: More routes between these airports
Route:
File this flight plan on PilotEdge
Remarks:
Altitude:
(Current/Filed)
9,500ft
Speed:
(Current/Filed)
170kts
Departed: 18-Apr-21 03:29 AM
Arrived: 18-Apr-21 04:12 AM
Distance/Time
Traveled:
6726nm/0:43
Distance/Time
To Go:
Arrived

Flight Plot

Page will automatically refresh every two minutes.


Map Options




Map Legend


Flown Route
Filed Route
Departure Airport
Arrival Airport
Navaid (VOR, NDB)
Fix

Horizontal Profiles

Position Reports

Time Latitude Longitude Heading Altitude Ground
Speed
18-Apr-21 03:17 34.576750 -117.188544 270 2994ft 0kts
18-Apr-21 03:18 34.576750 -117.188543 270 2993ft 0kts
18-Apr-21 03:19 34.576750 -117.188543 270 2993ft 0kts
18-Apr-21 03:20 34.576750 -117.188543 270 2993ft 0kts
18-Apr-21 03:21 34.576750 -117.188543 270 2993ft 0kts
18-Apr-21 03:22 34.576750 -117.188543 270 2993ft 0kts
18-Apr-21 03:23 34.576750 -117.188543 270 2993ft 0kts
18-Apr-21 03:24 34.576750 -117.188543 270 2993ft 0kts
18-Apr-21 03:25 34.578409 -117.187136 15 3007ft 16kts
18-Apr-21 03:26 34.583495 -117.185375 16 3040ft 22kts
18-Apr-21 03:27 34.587383 -117.184000 18 3062ft 11kts
18-Apr-21 03:28 34.577631 -117.186342 199 3068ft 100kts
18-Apr-21 03:29 34.548339 -117.202724 239 4100ft 114kts
18-Apr-21 03:30 34.554518 -117.233625 344 5089ft 104kts
18-Apr-21 03:31 34.586780 -117.251586 334 5595ft 144kts
18-Apr-21 03:32 34.618379 -117.282664 312 6239ft 152kts
18-Apr-21 03:33 34.641052 -117.325994 303 6922ft 152kts
18-Apr-21 03:34 34.661750 -117.369914 304 7659ft 148kts
18-Apr-21 03:35 34.682181 -117.413620 304 8386ft 148kts
18-Apr-21 03:36 34.702616 -117.457327 303 9108ft 149kts
18-Apr-21 03:37 34.724053 -117.503153 303 9451ft 166kts
18-Apr-21 03:38 34.747689 -117.553817 303 9477ft 177kts
18-Apr-21 03:39 34.772496 -117.607051 302 9466ft 183kts
18-Apr-21 03:40 34.797643 -117.661110 302 9478ft 182kts
18-Apr-21 03:41 34.822292 -117.714130 302 9639ft 181kts
18-Apr-21 03:42 34.846965 -117.767341 302 9646ft 179kts
18-Apr-21 03:43 34.871343 -117.820014 302 9646ft 177kts
18-Apr-21 03:44 34.895397 -117.872012 302 9648ft 175kts
18-Apr-21 03:45 34.918975 -117.923097 302 9648ft 170kts
18-Apr-21 03:46 34.942004 -117.973030 301 9651ft 168kts
18-Apr-21 03:47 34.964899 -118.022776 301 9651ft 169kts
18-Apr-21 03:48 34.988215 -118.073482 301 9673ft 173kts
18-Apr-21 03:49 35.011802 -118.124886 301 9678ft 175kts
18-Apr-21 03:50 35.035571 -118.176742 300 9679ft 175kts
18-Apr-21 03:51 35.059324 -118.228651 300 9679ft 175kts
18-Apr-21 03:52 35.083149 -118.280790 300 9677ft 175kts
18-Apr-21 03:53 35.106792 -118.332609 299 9740ft 174kts
18-Apr-21 03:54 35.130369 -118.384362 299 9747ft 175kts
18-Apr-21 03:55 35.154020 -118.436356 299 9745ft 174kts
18-Apr-21 03:56 35.177638 -118.488357 299 9751ft 175kts
18-Apr-21 03:57 35.201337 -118.540618 299 9750ft 175kts
18-Apr-21 03:58 35.224913 -118.592681 298 9750ft 175kts
18-Apr-21 03:59 35.248502 -118.644861 298 9749ft 175kts
18-Apr-21 04:00 35.271838 -118.696549 298 9292ft 165kts
18-Apr-21 04:01 35.292215 -118.741814 298 8306ft 143kts
18-Apr-21 04:02 35.305468 -118.786159 287 7323ft 135kts
18-Apr-21 04:03 35.316323 -118.829461 287 6339ft 131kts
18-Apr-21 04:04 35.326805 -118.871831 287 5377ft 129kts
18-Apr-21 04:05 35.337017 -118.913362 287 4469ft 126kts
18-Apr-21 04:06 35.354471 -118.951596 307 3415ft 130kts
18-Apr-21 04:07 35.374600 -118.983528 308 2486ft 99kts
18-Apr-21 04:08 35.392709 -119.007260 319 1491ft 90kts
18-Apr-21 04:09 35.409864 -119.027780 314 879ft 92kts
18-Apr-21 04:10 35.429035 -119.050553 315 539ft 91kts
18-Apr-21 04:11 35.438190 -119.059868 64 494ft 7kts
18-Apr-21 04:12 35.437612 -119.055972 84 495ft 0kts
18-Apr-21 04:13 35.437612 -119.055972 84 495ft 0kts
18-Apr-21 04:14 35.437612 -119.055972 84 495ft 0kts
18-Apr-21 04:15 35.437612 -119.055972 84 495ft 0kts
18-Apr-21 04:16 35.437612 -119.055972 84 495ft 0kts
18-Apr-21 04:17 35.437612 -119.055972 84 495ft 0kts
18-Apr-21 04:18 35.437612 -119.055972 84 495ft 0kts
18-Apr-21 04:19 0.000000 0.000000 0 0ft 0kts
18-Apr-21 04:20 0.000000 0.000000 0 0ft 0kts

Navigation Log

Ident Type
Flight plan parsing failed, navigation log unavailable